Middle Torch Key, Florida
Current Conditions -  °F | °C
As of 3:53 PM on Tuesday 21 Oct 2014 (Local Time) from KNQX Reporting Station
Overcast Overcast  
Wind Chill: 73°   Ceiling: 6000
Heat Index: 73°   Visibility: 10mi
Dew Point: 72°   Wind: 5mph
Humidity: 96%   Direction: 60°ENE
Pressure: 29.91"   Gusts: NA
Location:  24.6465°N, 81.5399°W
Report Text: KNQX 211953Z 06004KT 10SM FEW025 BKN060 OVC080 23/22 A2991 RMK AO2 SLP126 T02280222 $
Loading
Personal Weather Stations






























Interactive Weather Map
Tropical Storm Tracking
New forecast layout! Learn more

10-Day Weather Forecast

Advertisements
Track Severe Weather on mobile